sensor_id;sensor_type;location;lat;lon;timestamp;P1;durP1;ratioP1;P2;durP2;ratioP2
32106;SDS011;18622;51.998;10.440;2023-07-13T03:34:47;5.83;;;1.80;;
32106;SDS011;18622;51.998;10.440;2023-07-13T03:37:15;2.53;;;1.67;;
32106;SDS011;18622;51.998;10.440;2023-07-13T03:39:43;5.53;;;1.97;;
32106;SDS011;18622;51.998;10.440;2023-07-13T03:42:11;4.10;;;1.80;;
32106;SDS011;18622;51.998;10.440;2023-07-13T03:44:39;6.93;;;1.90;;
32106;SDS011;18622;51.998;10.440;2023-07-13T03:47:07;7.78;;;1.90;;
32106;SDS011;18622;51.998;10.440;2023-07-13T03:49:35;5.13;;;1.97;;
32106;SDS011;18622;51.998;10.440;2023-07-13T03:52:03;3.83;;;1.63;;
32106;SDS011;18622;51.998;10.440;2023-07-13T03:54:31;8.08;;;1.70;;
32106;SDS011;18622;51.998;10.440;2023-07-13T03:56:59;5.27;;;1.80;;
32106;SDS011;18622;51.998;10.440;2023-07-13T03:59:27;7.20;;;1.50;;
32106;SDS011;18622;51.998;10.440;2023-07-13T04:01:54;6.70;;;1.40;;
32106;SDS011;18622;51.998;10.440;2023-07-13T04:04:22;6.93;;;1.83;;
32106;SDS011;18622;51.998;10.440;2023-07-13T04:06:50;5.70;;;2.10;;
32106;SDS011;18622;51.998;10.440;2023-07-13T04:09:19;4.22;;;1.75;;
32106;SDS011;18622;51.998;10.440;2023-07-13T04:11:47;5.83;;;1.70;;
32106;SDS011;18622;51.998;10.440;2023-07-13T04:14:15;4.53;;;1.73;;
32106;SDS011;18622;51.998;10.440;2023-07-13T04:16:43;3.60;;;1.35;;
32106;SDS011;18622;51.998;10.440;2023-07-13T04:19:12;7.63;;;1.50;;
32106;SDS011;18622;51.998;10.440;2023-07-13T04:21:40;5.58;;;1.42;;
32106;SDS011;18622;51.998;10.440;2023-07-13T04:24:08;6.43;;;1.63;;
32106;SDS011;18622;51.998;10.440;2023-07-13T04:26:36;5.80;;;1.80;;
32106;SDS011;18622;51.998;10.440;2023-07-13T04:29:04;9.15;;;1.70;;
32106;SDS011;18622;51.998;10.440;2023-07-13T04:31:32;4.30;;;1.70;;
32106;SDS011;18622;51.998;10.440;2023-07-13T04:34:00;3.33;;;1.20;;
32106;SDS011;18622;51.998;10.440;2023-07-13T04:36:29;6.33;;;1.40;;
32106;SDS011;18622;51.998;10.440;2023-07-13T04:38:56;4.43;;;1.60;;
32106;SDS011;18622;51.998;10.440;2023-07-13T04:41:24;2.93;;;1.30;;
32106;SDS011;18622;51.998;10.440;2023-07-13T04:43:52;4.17;;;1.20;;
32106;SDS011;18622;51.998;10.440;2023-07-13T04:46:20;4.97;;;1.43;;
32106;SDS011;18622;51.998;10.440;2023-07-13T04:48:48;6.00;;;1.77;;
32106;SDS011;18622;51.998;10.440;2023-07-13T04:51:18;4.58;;;1.50;;
32106;SDS011;18622;51.998;10.440;2023-07-13T04:53:46;9.87;;;1.60;;
32106;SDS011;18622;51.998;10.440;2023-07-13T04:56:14;6.87;;;1.40;;
32106;SDS011;18622;51.998;10.440;2023-07-13T04:58:42;5.43;;;1.40;;
32106;SDS011;18622;51.998;10.440;2023-07-13T05:01:10;6.33;;;2.07;;
32106;SDS011;18622;51.998;10.440;2023-07-13T05:03:38;5.35;;;1.32;;
32106;SDS011;18622;51.998;10.440;2023-07-13T05:06:06;5.83;;;1.20;;
32106;SDS011;18622;51.998;10.440;2023-07-13T05:08:37;5.35;;;1.25;;
32106;SDS011;18622;51.998;10.440;2023-07-13T05:11:05;4.53;;;1.37;;
32106;SDS011;18622;51.998;10.440;2023-07-13T05:13:33;3.77;;;1.32;;
32106;SDS011;18622;51.998;10.440;2023-07-13T05:16:02;5.37;;;1.50;;
32106;SDS011;18622;51.998;10.440;2023-07-13T05:18:31;7.37;;;1.70;;
32106;SDS011;18622;51.998;10.440;2023-07-13T05:21:01;4.20;;;1.50;;
32106;SDS011;18622;51.998;10.440;2023-07-13T05:23:32;4.87;;;1.43;;
32106;SDS011;18622;51.998;10.440;2023-07-13T05:26:01;5.20;;;1.45;;
32106;SDS011;18622;51.998;10.440;2023-07-13T05:28:30;8.63;;;1.60;;
32106;SDS011;18622;51.998;10.440;2023-07-13T05:30:58;4.62;;;1.37;;
32106;SDS011;18622;51.998;10.440;2023-07-13T05:33:26;5.30;;;1.80;;
32106;SDS011;18622;51.998;10.440;2023-07-13T05:35:54;4.77;;;1.43;;
32106;SDS011;18622;51.998;10.440;2023-07-13T05:38:22;6.63;;;1.53;;
32106;SDS011;18622;51.998;10.440;2023-07-13T05:40:50;3.23;;;1.53;;
32106;SDS011;18622;51.998;10.440;2023-07-13T05:45:46;3.45;;;1.02;;
32106;SDS011;18622;51.998;10.440;2023-07-13T05:48:15;8.17;;;1.40;;
32106;SDS011;18622;51.998;10.440;2023-07-13T05:50:43;8.90;;;1.33;;
32106;SDS011;18622;51.998;10.440;2023-07-13T05:53:11;6.87;;;1.73;;
32106;SDS011;18622;51.998;10.440;2023-07-13T05:55:42;5.83;;;1.45;;
32106;SDS011;18622;51.998;10.440;2023-07-13T05:58:12;6.62;;;1.52;;
32106;SDS011;18622;51.998;10.440;2023-07-13T06:00:40;4.20;;;1.33;;
32106;SDS011;18622;51.998;10.440;2023-07-13T06:03:08;7.83;;;1.73;;
32106;SDS011;18622;51.998;10.440;2023-07-13T06:05:36;5.23;;;1.80;;
32106;SDS011;18622;51.998;10.440;2023-07-13T06:08:05;5.87;;;2.10;;
32106;SDS011;18622;51.998;10.440;2023-07-13T06:10:38;5.12;;;1.45;;
32106;SDS011;18622;51.998;10.440;2023-07-13T06:13:03;4.35;;;1.40;;
32106;SDS011;18622;51.998;10.440;2023-07-13T06:15:31;9.20;;;1.73;;
32106;SDS011;18622;51.998;10.440;2023-07-13T06:17:59;10.20;;;2.05;;
32106;SDS011;18622;51.998;10.440;2023-07-13T06:20:28;4.10;;;1.43;;
32106;SDS011;18622;51.998;10.440;2023-07-13T06:22:56;5.62;;;2.20;;
32106;SDS011;18622;51.998;10.440;2023-07-13T06:25:24;4.67;;;1.60;;
32106;SDS011;18622;51.998;10.440;2023-07-13T06:27:52;5.33;;;1.57;;
32106;SDS011;18622;51.998;10.440;2023-07-13T06:30:20;6.53;;;1.70;;
32106;SDS011;18622;51.998;10.440;2023-07-13T06:32:48;8.40;;;1.50;;
32106;SDS011;18622;51.998;10.440;2023-07-13T06:35:16;6.28;;;1.72;;
32106;SDS011;18622;51.998;10.440;2023-07-13T06:37:44;9.00;;;2.13;;
32106;SDS011;18622;51.998;10.440;2023-07-13T06:40:12;6.40;;;1.73;;
32106;SDS011;18622;51.998;10.440;2023-07-13T06:42:40;4.60;;;1.97;;
32106;SDS011;18622;51.998;10.440;2023-07-13T06:45:09;5.80;;;1.77;;
32106;SDS011;18622;51.998;10.440;2023-07-13T06:47:36;6.80;;;2.00;;
32106;SDS011;18622;51.998;10.440;2023-07-13T06:50:05;6.10;;;2.33;;
32106;SDS011;18622;51.998;10.440;2023-07-13T06:52:33;7.80;;;2.00;;
32106;SDS011;18622;51.998;10.440;2023-07-13T06:55:00;6.57;;;2.10;;
32106;SDS011;18622;51.998;10.440;2023-07-13T06:57:29;5.93;;;2.13;;
32106;SDS011;18622;51.998;10.440;2023-07-13T06:59:56;5.30;;;1.80;;
32106;SDS011;18622;51.998;10.440;2023-07-13T07:02:24;6.23;;;1.90;;
32106;SDS011;18622;51.998;10.440;2023-07-13T07:04:52;6.83;;;2.67;;
32106;SDS011;18622;51.998;10.440;2023-07-13T07:07:23;4.33;;;1.75;;
32106;SDS011;18622;51.998;10.440;2023-07-13T07:09:51;9.00;;;1.80;;
32106;SDS011;18622;51.998;10.440;2023-07-13T07:12:18;5.57;;;1.90;;
32106;SDS011;18622;51.998;10.440;2023-07-13T07:14:46;7.20;;;2.07;;
32106;SDS011;18622;51.998;10.440;2023-07-13T07:17:14;8.77;;;2.33;;
32106;SDS011;18622;51.998;10.440;2023-07-13T07:19:42;6.83;;;1.83;;
32106;SDS011;18622;51.998;10.440;2023-07-13T07:22:10;6.10;;;1.90;;
32106;SDS011;18622;51.998;10.440;2023-07-13T07:24:38;4.50;;;1.40;;
32106;SDS011;18622;51.998;10.440;2023-07-13T07:27:06;5.57;;;1.63;;
32106;SDS011;18622;51.998;10.440;2023-07-13T07:29:33;5.20;;;1.03;;
32106;SDS011;18622;51.998;10.440;2023-07-13T07:32:01;6.53;;;1.70;;
32106;SDS011;18622;51.998;10.440;2023-07-13T07:34:29;6.27;;;1.50;;
32106;SDS011;18622;51.998;10.440;2023-07-13T07:36:59;3.50;;;1.15;;
32106;SDS011;18622;51.998;10.440;2023-07-13T07:39:27;5.00;;;1.50;;
32106;SDS011;18622;51.998;10.440;2023-07-13T07:41:55;6.40;;;1.20;;
32106;SDS011;18622;51.998;10.440;2023-07-13T07:44:23;3.87;;;1.40;;
32106;SDS011;18622;51.998;10.440;2023-07-13T07:46:55;5.75;;;1.50;;
32106;SDS011;18622;51.998;10.440;2023-07-13T07:49:22;5.78;;;1.42;;
32106;SDS011;18622;51.998;10.440;2023-07-13T07:51:50;4.57;;;1.40;;
32106;SDS011;18622;51.998;10.440;2023-07-13T07:54:18;4.17;;;1.63;;
32106;SDS011;18622;51.998;10.440;2023-07-13T07:56:46;4.73;;;1.20;;
32106;SDS011;18622;51.998;10.440;2023-07-13T07:59:14;8.87;;;1.63;;
32106;SDS011;18622;51.998;10.440;2023-07-13T08:01:42;4.13;;;1.23;;
32106;SDS011;18622;51.998;10.440;2023-07-13T08:04:12;3.83;;;1.30;;
32106;SDS011;18622;51.998;10.440;2023-07-13T08:06:39;3.70;;;1.55;;
32106;SDS011;18622;51.998;10.440;2023-07-13T08:09:07;3.37;;;1.23;;
32106;SDS011;18622;51.998;10.440;2023-07-13T08:11:35;3.60;;;1.40;;
32106;SDS011;18622;51.998;10.440;2023-07-13T08:14:03;3.33;;;1.07;;
32106;SDS011;18622;51.998;10.440;2023-07-13T08:16:31;3.37;;;1.33;;
32106;SDS011;18622;51.998;10.440;2023-07-13T08:18:59;3.60;;;1.30;;
32106;SDS011;18622;51.998;10.440;2023-07-13T08:21:27;5.53;;;1.83;;
32106;SDS011;18622;51.998;10.440;2023-07-13T08:23:55;7.17;;;1.27;;
32106;SDS011;18622;51.998;10.440;2023-07-13T08:26:23;4.60;;;1.40;;
32106;SDS011;18622;51.998;10.440;2023-07-13T08:28:51;2.97;;;1.00;;
32106;SDS011;18622;51.998;10.440;2023-07-13T08:31:18;5.00;;;1.27;;
32106;SDS011;18622;51.998;10.440;2023-07-13T08:33:46;2.47;;;0.90;;
32106;SDS011;18622;51.998;10.440;2023-07-13T08:36:14;2.53;;;1.13;;
32106;SDS011;18622;51.998;10.440;2023-07-13T08:38:42;3.60;;;1.13;;
32106;SDS011;18622;51.998;10.440;2023-07-13T08:41:14;1.53;;;0.90;;
32106;SDS011;18622;51.998;10.440;2023-07-13T08:43:56;3.43;;;1.00;;
32106;SDS011;18622;51.998;10.440;2023-07-13T08:46:24;3.67;;;0.80;;
32106;SDS011;18622;51.998;10.440;2023-07-13T08:49:02;5.00;;;1.37;;
32106;SDS011;18622;51.998;10.440;2023-07-13T08:51:32;3.37;;;0.90;;
32106;SDS011;18622;51.998;10.440;2023-07-13T08:54:20;3.97;;;1.03;;
32106;SDS011;18622;51.998;10.440;2023-07-13T08:56:52;2.37;;;1.00;;
32106;SDS011;18622;51.998;10.440;2023-07-13T08:59:26;6.27;;;1.20;;
32106;SDS011;18622;51.998;10.440;2023-07-13T09:04:34;3.27;;;1.23;;
32106;SDS011;18622;51.998;10.440;2023-07-13T09:07:23;2.80;;;1.15;;
32106;SDS011;18622;51.998;10.440;2023-07-13T09:09:55;2.13;;;0.83;;
32106;SDS011;18622;51.998;10.440;2023-07-13T09:12:35;3.77;;;1.07;;
32106;SDS011;18622;51.998;10.440;2023-07-13T09:14:55;3.93;;;1.00;;
32106;SDS011;18622;51.998;10.440;2023-07-13T09:17:46;2.15;;;0.95;;
32106;SDS011;18622;51.998;10.440;2023-07-13T09:20:16;2.90;;;1.00;;
32106;SDS011;18622;51.998;10.440;2023-07-13T09:22:50;4.27;;;0.90;;
32106;SDS011;18622;51.998;10.440;2023-07-13T09:25:37;5.20;;;1.00;;
32106;SDS011;18622;51.998;10.440;2023-07-13T09:27:57;1.97;;;0.90;;
32106;SDS011;18622;51.998;10.440;2023-07-13T09:30:45;2.07;;;0.80;;
32106;SDS011;18622;51.998;10.440;2023-07-13T09:33:15;3.57;;;1.03;;
32106;SDS011;18622;51.998;10.440;2023-07-13T09:35:43;2.67;;;1.10;;
32106;SDS011;18622;51.998;10.440;2023-07-13T09:38:11;4.33;;;0.97;;
32106;SDS011;18622;51.998;10.440;2023-07-13T09:40:44;2.80;;;1.07;;
32106;SDS011;18622;51.998;10.440;2023-07-13T09:43:12;5.33;;;1.45;;
32106;SDS011;18622;51.998;10.440;2023-07-13T09:48:19;2.43;;;1.37;;
32106;SDS011;18622;51.998;10.440;2023-07-13T09:50:47;2.67;;;1.00;;
32106;SDS011;18622;51.998;10.440;2023-07-13T09:53:16;2.60;;;1.13;;
32106;SDS011;18622;51.998;10.440;2023-07-13T09:55:46;7.60;;;1.07;;
32106;SDS011;18622;51.998;10.440;2023-07-13T10:00:44;3.65;;;1.30;;
32106;SDS011;18622;51.998;10.440;2023-07-13T10:03:29;2.00;;;1.00;;
32106;SDS011;18622;51.998;10.440;2023-07-13T10:06:12;2.40;;;1.20;;
32106;SDS011;18622;51.998;10.440;2023-07-13T10:08:41;2.60;;;1.33;;
32106;SDS011;18622;51.998;10.440;2023-07-13T10:11:12;2.73;;;1.20;;
32106;SDS011;18622;51.998;10.440;2023-07-13T10:13:56;2.37;;;1.30;;
32106;SDS011;18622;51.998;10.440;2023-07-13T10:16:28;1.77;;;1.00;;
32106;SDS011;18622;51.998;10.440;2023-07-13T10:18:59;2.40;;;1.00;;
32106;SDS011;18622;51.998;10.440;2023-07-13T10:21:39;3.37;;;1.27;;
32106;SDS011;18622;51.998;10.440;2023-07-13T10:24:19;1.97;;;1.10;;
32106;SDS011;18622;51.998;10.440;2023-07-13T10:26:56;2.17;;;1.20;;
32106;SDS011;18622;51.998;10.440;2023-07-13T10:29:25;5.60;;;1.27;;
32106;SDS011;18622;51.998;10.440;2023-07-13T10:31:55;4.43;;;1.13;;
32106;SDS011;18622;51.998;10.440;2023-07-13T10:34:23;1.73;;;1.20;;
32106;SDS011;18622;51.998;10.440;2023-07-13T10:36:51;3.47;;;1.30;;
32106;SDS011;18622;51.998;10.440;2023-07-13T10:39:20;4.73;;;1.27;;
32106;SDS011;18622;51.998;10.440;2023-07-13T10:41:52;5.40;;;1.17;;
32106;SDS011;18622;51.998;10.440;2023-07-13T10:44:22;3.70;;;1.42;;
32106;SDS011;18622;51.998;10.440;2023-07-13T10:47:07;3.30;;;1.40;;
32106;SDS011;18622;51.998;10.440;2023-07-13T10:49:37;5.43;;;1.67;;
32106;SDS011;18622;51.998;10.440;2023-07-13T10:52:05;3.17;;;1.45;;
32106;SDS011;18622;51.998;10.440;2023-07-13T10:54:35;3.00;;;1.40;;
32106;SDS011;18622;51.998;10.440;2023-07-13T11:00:10;4.03;;;1.40;;
32106;SDS011;18622;51.998;10.440;2023-07-13T11:02:25;2.27;;;1.23;;
32106;SDS011;18622;51.998;10.440;2023-07-13T11:04:55;5.27;;;1.30;;
32106;SDS011;18622;51.998;10.440;2023-07-13T11:09:55;4.40;;;1.52;;
32106;SDS011;18622;51.998;10.440;2023-07-13T11:17:48;6.33;;;1.13;;
32106;SDS011;18622;51.998;10.440;2023-07-13T11:22:50;3.13;;;1.37;;
32106;SDS011;18622;51.998;10.440;2023-07-13T11:25:24;4.47;;;1.67;;
32106;SDS011;18622;51.998;10.440;2023-07-13T11:30:47;4.33;;;1.30;;
32106;SDS011;18622;51.998;10.440;2023-07-13T11:36:14;3.17;;;1.30;;
32106;SDS011;18622;51.998;10.440;2023-07-13T11:38:49;1.90;;;1.20;;
32106;SDS011;18622;51.998;10.440;2023-07-13T11:41:37;4.40;;;1.50;;
32106;SDS011;18622;51.998;10.440;2023-07-13T11:44:13;2.77;;;1.60;;
32106;SDS011;18622;51.998;10.440;2023-07-13T11:46:53;3.83;;;1.43;;
32106;SDS011;18622;51.998;10.440;2023-07-13T11:49:20;3.90;;;1.30;;
32106;SDS011;18622;51.998;10.440;2023-07-13T11:51:50;3.58;;;1.50;;
32106;SDS011;18622;51.998;10.440;2023-07-13T11:54:24;4.70;;;1.50;;
32106;SDS011;18622;51.998;10.440;2023-07-13T11:56:57;3.10;;;1.40;;
32106;SDS011;18622;51.998;10.440;2023-07-13T11:59:32;4.93;;;1.27;;
32106;SDS011;18622;51.998;10.440;2023-07-13T12:02:02;3.17;;;1.40;;
32106;SDS011;18622;51.998;10.440;2023-07-13T12:04:32;2.17;;;1.30;;
32106;SDS011;18622;51.998;10.440;2023-07-13T12:09:32;2.75;;;1.40;;
32106;SDS011;18622;51.998;10.440;2023-07-13T12:12:02;3.72;;;1.57;;
32106;SDS011;18622;51.998;10.440;2023-07-13T12:14:33;3.98;;;1.40;;
32106;SDS011;18622;51.998;10.440;2023-07-13T12:17:01;2.77;;;1.30;;
32106;SDS011;18622;51.998;10.440;2023-07-13T12:21:57;3.87;;;1.17;;
32106;SDS011;18622;51.998;10.440;2023-07-13T12:24:26;8.90;;;1.70;;
32106;SDS011;18622;51.998;10.440;2023-07-13T12:27:02;4.33;;;1.55;;
32106;SDS011;18622;51.998;10.440;2023-07-13T12:29:31;3.73;;;1.53;;
32106;SDS011;18622;51.998;10.440;2023-07-13T12:32:00;5.08;;;1.55;;
32106;SDS011;18622;51.998;10.440;2023-07-13T12:34:28;3.53;;;1.57;;
32106;SDS011;18622;51.998;10.440;2023-07-13T12:36:56;5.23;;;1.83;;
32106;SDS011;18622;51.998;10.440;2023-07-13T12:39:32;2.83;;;1.60;;
32106;SDS011;18622;51.998;10.440;2023-07-13T12:44:54;3.83;;;1.43;;
32106;SDS011;18622;51.998;10.440;2023-07-13T12:47:27;2.37;;;1.63;;
32106;SDS011;18622;51.998;10.440;2023-07-13T12:49:57;4.30;;;1.80;;
32106;SDS011;18622;51.998;10.440;2023-07-13T12:52:28;3.47;;;1.63;;
32106;SDS011;18622;51.998;10.440;2023-07-13T12:55:10;1.95;;;1.60;;
32106;SDS011;18622;51.998;10.440;2023-07-13T12:57:39;6.33;;;1.77;;
32106;SDS011;18622;51.998;10.440;2023-07-13T13:00:18;4.28;;;1.67;;
32106;SDS011;18622;51.998;10.440;2023-07-13T13:02:51;3.20;;;1.50;;
32106;SDS011;18622;51.998;10.440;2023-07-13T13:05:22;3.53;;;1.30;;
32106;SDS011;18622;51.998;10.440;2023-07-13T13:07:51;2.53;;;1.30;;
32106;SDS011;18622;51.998;10.440;2023-07-13T13:10:19;2.57;;;1.60;;
32106;SDS011;18622;51.998;10.440;2023-07-13T13:12:47;2.23;;;1.40;;
32106;SDS011;18622;51.998;10.440;2023-07-13T13:15:15;5.77;;;1.30;;
32106;SDS011;18622;51.998;10.440;2023-07-13T13:17:43;2.95;;;1.65;;
32106;SDS011;18622;51.998;10.440;2023-07-13T13:20:18;4.43;;;1.37;;
32106;SDS011;18622;51.998;10.440;2023-07-13T13:22:47;5.03;;;1.60;;
32106;SDS011;18622;51.998;10.440;2023-07-13T13:25:15;2.93;;;1.47;;
32106;SDS011;18622;51.998;10.440;2023-07-13T13:27:44;5.47;;;1.80;;
32106;SDS011;18622;51.998;10.440;2023-07-13T13:30:18;2.10;;;1.30;;
32106;SDS011;18622;51.998;10.440;2023-07-13T13:32:45;4.92;;;1.45;;
32106;SDS011;18622;51.998;10.440;2023-07-13T13:35:19;3.12;;;1.72;;
32106;SDS011;18622;51.998;10.440;2023-07-13T13:37:44;2.37;;;1.40;;
32106;SDS011;18622;51.998;10.440;2023-07-13T13:40:15;5.42;;;1.62;;
32106;SDS011;18622;51.998;10.440;2023-07-13T13:42:45;2.93;;;1.20;;
32106;SDS011;18622;51.998;10.440;2023-07-13T13:45:13;2.83;;;1.30;;
32106;SDS011;18622;51.998;10.440;2023-07-13T13:47:43;1.83;;;1.20;;
32106;SDS011;18622;51.998;10.440;2023-07-13T13:50:12;5.40;;;1.60;;
32106;SDS011;18622;51.998;10.440;2023-07-13T13:52:42;1.75;;;1.50;;
32106;SDS011;18622;51.998;10.440;2023-07-13T13:55:11;2.87;;;1.60;;
32106;SDS011;18622;51.998;10.440;2023-07-13T13:57:40;2.63;;;1.40;;
32106;SDS011;18622;51.998;10.440;2023-07-13T14:00:09;5.77;;;1.50;;
32106;SDS011;18622;51.998;10.440;2023-07-13T14:02:40;2.25;;;1.50;;
32106;SDS011;18622;51.998;10.440;2023-07-13T14:05:11;3.93;;;1.50;;
32106;SDS011;18622;51.998;10.440;2023-07-13T14:07:41;1.67;;;1.35;;
32106;SDS011;18622;51.998;10.440;2023-07-13T14:10:14;3.55;;;2.05;;
32106;SDS011;18622;51.998;10.440;2023-07-13T14:12:44;3.90;;;1.43;;
32106;SDS011;18622;51.998;10.440;2023-07-13T14:15:18;2.80;;;1.40;;
32106;SDS011;18622;51.998;10.440;2023-07-13T14:17:59;3.37;;;1.63;;
32106;SDS011;18622;51.998;10.440;2023-07-13T14:20:27;7.77;;;1.80;;
32106;SDS011;18622;51.998;10.440;2023-07-13T14:22:56;2.08;;;1.27;;
32106;SDS011;18622;51.998;10.440;2023-07-13T14:25:24;6.33;;;1.40;;
32106;SDS011;18622;51.998;10.440;2023-07-13T14:27:53;4.27;;;1.70;;
32106;SDS011;18622;51.998;10.440;2023-07-13T14:30:24;3.52;;;1.90;;
32106;SDS011;18622;51.998;10.440;2023-07-13T14:32:52;10.73;;;1.70;;
32106;SDS011;18622;51.998;10.440;2023-07-13T14:35:21;2.13;;;1.47;;
32106;SDS011;18622;51.998;10.440;2023-07-13T14:40:23;4.35;;;1.20;;
32106;SDS011;18622;51.998;10.440;2023-07-13T14:42:50;4.60;;;1.40;;
32106;SDS011;18622;51.998;10.440;2023-07-13T14:45:18;3.90;;;1.90;;
32106;SDS011;18622;51.998;10.440;2023-07-13T14:47:47;3.58;;;1.55;;
32106;SDS011;18622;51.998;10.440;2023-07-13T14:50:16;3.03;;;1.37;;
32106;SDS011;18622;51.998;10.440;2023-07-13T14:52:46;2.75;;;1.37;;
32106;SDS011;18622;51.998;10.440;2023-07-13T14:55:16;2.42;;;1.50;;
32106;SDS011;18622;51.998;10.440;2023-07-13T14:57:45;5.47;;;1.40;;
32106;SDS011;18622;51.998;10.440;2023-07-13T15:00:14;3.70;;;1.67;;
32106;SDS011;18622;51.998;10.440;2023-07-13T15:02:44;6.95;;;1.52;;
32106;SDS011;18622;51.998;10.440;2023-07-13T15:05:15;2.77;;;1.30;;
32106;SDS011;18622;51.998;10.440;2023-07-13T15:07:45;1.65;;;1.17;;
32106;SDS011;18622;51.998;10.440;2023-07-13T15:10:14;2.43;;;1.63;;
32106;SDS011;18622;51.998;10.440;2023-07-13T15:12:43;3.23;;;1.43;;
32106;SDS011;18622;51.998;10.440;2023-07-13T15:15:11;2.93;;;1.33;;
32106;SDS011;18622;51.998;10.440;2023-07-13T15:17:40;3.37;;;1.30;;
32106;SDS011;18622;51.998;10.440;2023-07-13T15:22:47;3.40;;;1.40;;
32106;SDS011;18622;51.998;10.440;2023-07-13T15:25:17;4.73;;;1.67;;
32106;SDS011;18622;51.998;10.440;2023-07-13T15:27:46;7.17;;;1.57;;
32106;SDS011;18622;51.998;10.440;2023-07-13T15:30:14;9.13;;;1.43;;
32106;SDS011;18622;51.998;10.440;2023-07-13T15:32:45;5.93;;;1.60;;
32106;SDS011;18622;51.998;10.440;2023-07-13T15:35:13;4.87;;;1.30;;
32106;SDS011;18622;51.998;10.440;2023-07-13T15:37:43;3.27;;;1.87;;
32106;SDS011;18622;51.998;10.440;2023-07-13T15:40:11;6.37;;;1.80;;
32106;SDS011;18622;51.998;10.440;2023-07-13T15:42:40;6.42;;;1.50;;
32106;SDS011;18622;51.998;10.440;2023-07-13T15:45:31;3.07;;;1.40;;
32106;SDS011;18622;51.998;10.440;2023-07-13T15:47:43;4.03;;;1.60;;
32106;SDS011;18622;51.998;10.440;2023-07-13T15:50:17;3.60;;;1.60;;
32106;SDS011;18622;51.998;10.440;2023-07-13T15:52:44;5.00;;;1.73;;
32106;SDS011;18622;51.998;10.440;2023-07-13T15:55:14;3.65;;;1.30;;
32106;SDS011;18622;51.998;10.440;2023-07-13T15:57:43;3.77;;;1.57;;
32106;SDS011;18622;51.998;10.440;2023-07-13T16:00:25;5.08;;;1.90;;
32106;SDS011;18622;51.998;10.440;2023-07-13T16:02:51;3.47;;;1.70;;
32106;SDS011;18622;51.998;10.440;2023-07-13T16:05:20;3.92;;;1.42;;
32106;SDS011;18622;51.998;10.440;2023-07-13T16:07:50;2.73;;;1.33;;
32106;SDS011;18622;51.998;10.440;2023-07-13T16:10:21;5.40;;;1.65;;
32106;SDS011;18622;51.998;10.440;2023-07-13T16:12:50;7.03;;;1.55;;
32106;SDS011;18622;51.998;10.440;2023-07-13T16:15:19;2.57;;;1.70;;
32106;SDS011;18622;51.998;10.440;2023-07-13T16:17:48;4.40;;;1.60;;
32106;SDS011;18622;51.998;10.440;2023-07-13T16:22:46;2.15;;;1.45;;
32106;SDS011;18622;51.998;10.440;2023-07-13T16:25:17;3.70;;;1.90;;
32106;SDS011;18622;51.998;10.440;2023-07-13T16:27:50;4.50;;;1.50;;
32106;SDS011;18622;51.998;10.440;2023-07-13T16:30:22;4.77;;;1.60;;
32106;SDS011;18622;51.998;10.440;2023-07-13T16:32:55;3.93;;;1.33;;
32106;SDS011;18622;51.998;10.440;2023-07-13T16:35:26;2.17;;;1.33;;
32106;SDS011;18622;51.998;10.440;2023-07-13T16:37:55;1.27;;;1.00;;
32106;SDS011;18622;51.998;10.440;2023-07-13T16:40:27;1.60;;;0.90;;
32106;SDS011;18622;51.998;10.440;2023-07-13T16:42:56;1.55;;;1.00;;
32106;SDS011;18622;51.998;10.440;2023-07-13T16:45:26;2.02;;;1.10;;
32106;SDS011;18622;51.998;10.440;2023-07-13T16:47:57;2.47;;;1.10;;
32106;SDS011;18622;51.998;10.440;2023-07-13T16:50:28;2.07;;;1.10;;
32106;SDS011;18622;51.998;10.440;2023-07-13T16:52:56;1.35;;;1.07;;
32106;SDS011;18622;51.998;10.440;2023-07-13T16:55:25;2.17;;;1.23;;
32106;SDS011;18622;51.998;10.440;2023-07-13T17:00:25;1.30;;;0.93;;
32106;SDS011;18622;51.998;10.440;2023-07-13T17:02:55;2.58;;;1.25;;
32106;SDS011;18622;51.998;10.440;2023-07-13T17:05:32;2.47;;;1.00;;
32106;SDS011;18622;51.998;10.440;2023-07-13T17:07:58;2.37;;;1.20;;
32106;SDS011;18622;51.998;10.440;2023-07-13T17:12:55;2.62;;;1.12;;
32106;SDS011;18622;51.998;10.440;2023-07-13T17:15:23;3.17;;;1.32;;
32106;SDS011;18622;51.998;10.440;2023-07-13T17:17:53;4.45;;;1.30;;
32106;SDS011;18622;51.998;10.440;2023-07-13T17:20:23;3.33;;;1.30;;
32106;SDS011;18622;51.998;10.440;2023-07-13T17:22:53;2.42;;;1.30;;
32106;SDS011;18622;51.998;10.440;2023-07-13T17:25:21;2.77;;;1.20;;
32106;SDS011;18622;51.998;10.440;2023-07-13T17:30:20;3.20;;;1.05;;
32106;SDS011;18622;51.998;10.440;2023-07-13T17:32:49;1.57;;;0.97;;
32106;SDS011;18622;51.998;10.440;2023-07-13T17:35:28;3.58;;;1.45;;
32106;SDS011;18622;51.998;10.440;2023-07-13T17:37:57;3.27;;;1.60;;
32106;SDS011;18622;51.998;10.440;2023-07-13T17:40:27;2.17;;;1.30;;
32106;SDS011;18622;51.998;10.440;2023-07-13T17:42:56;4.63;;;1.60;;
32106;SDS011;18622;51.998;10.440;2023-07-13T17:45:25;1.80;;;1.10;;
32106;SDS011;18622;51.998;10.440;2023-07-13T17:47:54;4.77;;;1.57;;
32106;SDS011;18622;51.998;10.440;2023-07-13T17:50:29;3.35;;;1.82;;
32106;SDS011;18622;51.998;10.440;2023-07-13T17:53:15;5.33;;;1.50;;
32106;SDS011;18622;51.998;10.440;2023-07-13T17:55:44;3.23;;;1.37;;
32106;SDS011;18622;51.998;10.440;2023-07-13T17:58:15;2.30;;;1.50;;
32106;SDS011;18622;51.998;10.440;2023-07-13T18:00:45;2.83;;;1.37;;
32106;SDS011;18622;51.998;10.440;2023-07-13T18:03:16;3.62;;;1.50;;
32106;SDS011;18622;51.998;10.440;2023-07-13T18:05:46;3.90;;;1.40;;
32106;SDS011;18622;51.998;10.440;2023-07-13T18:08:24;2.37;;;1.50;;
32106;SDS011;18622;51.998;10.440;2023-07-13T18:10:53;3.97;;;1.53;;
32106;SDS011;18622;51.998;10.440;2023-07-13T18:15:51;3.70;;;1.90;;
32106;SDS011;18622;51.998;10.440;2023-07-13T18:18:20;4.13;;;1.80;;
32106;SDS011;18622;51.998;10.440;2023-07-13T18:20:48;2.55;;;1.55;;
32106;SDS011;18622;51.998;10.440;2023-07-13T18:23:22;2.50;;;1.93;;
32106;SDS011;18622;51.998;10.440;2023-07-13T18:25:47;4.85;;;2.40;;
32106;SDS011;18622;51.998;10.440;2023-07-13T18:28:16;3.58;;;2.12;;
32106;SDS011;18622;51.998;10.440;2023-07-13T18:30:44;3.00;;;2.12;;
32106;SDS011;18622;51.998;10.440;2023-07-13T18:33:21;2.07;;;1.80;;
32106;SDS011;18622;51.998;10.440;2023-07-13T18:36:01;4.80;;;2.27;;
32106;SDS011;18622;51.998;10.440;2023-07-13T18:38:26;3.52;;;1.90;;
32106;SDS011;18622;51.998;10.440;2023-07-13T18:40:55;3.33;;;1.77;;
32106;SDS011;18622;51.998;10.440;2023-07-13T18:43:23;4.20;;;1.70;;
32106;SDS011;18622;51.998;10.440;2023-07-13T18:45:51;4.03;;;1.80;;
32106;SDS011;18622;51.998;10.440;2023-07-13T18:48:23;2.22;;;1.65;;
32106;SDS011;18622;51.998;10.440;2023-07-13T18:53:19;3.65;;;1.72;;
32106;SDS011;18622;51.998;10.440;2023-07-13T18:55:47;3.47;;;1.70;;
32106;SDS011;18622;51.998;10.440;2023-07-13T18:58:15;3.77;;;1.63;;
32106;SDS011;18622;51.998;10.440;2023-07-13T19:00:45;6.13;;;1.60;;
32106;SDS011;18622;51.998;10.440;2023-07-13T19:05:43;4.78;;;1.80;;
32106;SDS011;18622;51.998;10.440;2023-07-13T19:08:17;3.25;;;1.37;;
32106;SDS011;18622;51.998;10.440;2023-07-13T19:10:50;3.97;;;1.73;;
32106;SDS011;18622;51.998;10.440;2023-07-13T19:13:20;3.95;;;1.55;;
32106;SDS011;18622;51.998;10.440;2023-07-13T19:15:53;3.17;;;1.83;;
32106;SDS011;18622;51.998;10.440;2023-07-13T19:18:23;4.30;;;1.57;;
32106;SDS011;18622;51.998;10.440;2023-07-13T19:20:53;3.40;;;1.70;;
32106;SDS011;18622;51.998;10.440;2023-07-13T19:23:34;2.60;;;1.40;;